Time;durP1;ratioP1;P1;durP2;ratioP2;P2;SDS_P1;SDS_P2;PMS_P1;PMS_P2;Temp;Humidity;BMP_temperature;BMP_pressure;BME280_temperature;BME280_humidity;BME280_pressure;Samples;Min_cycle;Max_cycle;Signal;HPM_P1;HPM_P2
2023/09/19 00:20:17;;;;;;;17.58;15.95;;;20.60;99.90;;;;;;4592734;19;20115;-69
2023/09/19 00:21:53;;;;;;;16.88;15.25;;;20.60;99.90;;;;;;4592400;19;20013;-69
2023/09/19 00:23:28;;;;;;;16.80;15.27;;;20.60;99.90;;;;;;4593774;19;20023;-69
2023/09/19 00:25:05;;;;;;;15.52;14.00;;;20.60;99.90;;;;;;4592503;19;19998;-69
2023/09/19 00:26:40;;;;;;;16.75;15.20;;;20.60;99.90;;;;;;4593465;19;20470;-69
2023/09/19 00:28:14;;;;;;;16.77;15.15;;;20.60;99.90;;;;;;4593196;19;20017;-69
2023/09/19 00:29:49;;;;;;;16.85;15.20;;;20.50;99.90;;;;;;4592829;19;20002;-69
2023/09/19 00:31:25;;;;;;;16.33;14.73;;;20.50;99.90;;;;;;4593748;19;20028;-69
2023/09/19 00:33:01;;;;;;;16.08;14.57;;;20.50;99.90;;;;;;4592229;19;20002;-69
2023/09/19 00:34:37;;;;;;;18.02;16.30;;;20.50;99.90;;;;;;4593328;19;20023;-69
2023/09/19 00:36:12;;;;;;;18.42;16.52;;;20.50;99.90;;;;;;4592477;19;20002;-69
2023/09/19 00:37:46;;;;;;;18.48;16.63;;;20.50;99.90;;;;;;4593423;19;20002;-69
2023/09/19 00:39:21;;;;;;;16.88;15.18;;;20.50;99.90;;;;;;4592994;19;20009;-69
2023/09/19 00:40:56;;;;;;;17.38;15.68;;;20.50;99.90;;;;;;4593497;19;20025;-69
2023/09/19 00:42:34;;;;;;;17.35;15.75;;;20.40;99.90;;;;;;4593717;19;20003;-69
2023/09/19 00:44:10;;;;;;;17.85;16.08;;;20.50;99.90;;;;;;4593263;19;20009;-69
2023/09/19 00:45:46;;;;;;;17.75;16.00;;;20.40;99.90;;;;;;4593546;19;20003;-69
2023/09/19 00:47:21;;;;;;;17.90;16.20;;;20.40;99.90;;;;;;4592071;19;20057;-69
2023/09/19 00:48:56;;;;;;;17.45;15.73;;;20.40;99.90;;;;;;4590502;19;20022;-69
2023/09/19 00:50:32;;;;;;;17.75;16.08;;;20.40;99.90;;;;;;4593223;19;20006;-69
2023/09/19 00:52:07;;;;;;;17.40;15.77;;;20.40;99.90;;;;;;4591889;19;20474;-69
2023/09/19 00:53:46;;;;;;;17.58;15.73;;;20.40;99.90;;;;;;4592090;19;20009;-69
2023/09/19 00:55:24;;;;;;;18.27;16.38;;;20.40;99.90;;;;;;4593137;19;20034;-69
2023/09/19 00:56:59;;;;;;;17.13;15.52;;;20.40;99.90;;;;;;4593425;19;20014;-69
2023/09/19 00:58:35;;;;;;;18.60;16.83;;;20.40;99.90;;;;;;4593244;19;20002;-69
2023/09/19 01:00:15;;;;;;;17.50;15.70;;;20.30;99.90;;;;;;4590821;19;20007;-69
2023/09/19 01:01:53;;;;;;;18.98;16.92;;;20.30;99.90;;;;;;4592021;19;20003;-69
2023/09/19 01:03:29;;;;;;;18.17;16.38;;;20.30;99.90;;;;;;4591932;19;20012;-69
2023/09/19 01:05:07;;;;;;;17.85;16.27;;;20.30;99.90;;;;;;4590262;19;20011;-69
2023/09/19 01:06:42;;;;;;;18.27;16.42;;;20.30;99.90;;;;;;4592916;19;20007;-69
2023/09/19 01:08:16;;;;;;;18.05;16.35;;;20.30;99.90;;;;;;4590792;19;20010;-69
2023/09/19 01:09:51;;;;;;;18.83;17.02;;;20.30;99.90;;;;;;4591471;19;20355;-69
2023/09/19 01:11:34;;;;;;;17.63;15.93;;;20.30;99.90;;;;;;4592663;19;20010;-69
2023/09/19 01:13:51;;;;;;;18.63;16.77;;;20.30;99.90;;;;;;4591754;19;20442;-69
2023/09/19 01:15:44;;;;;;;18.30;16.58;;;20.30;99.90;;;;;;4590152;19;20014;-69
2023/09/19 01:17:25;;;;;;;18.52;16.63;;;20.30;99.90;;;;;;4591072;19;20007;-69
2023/09/19 01:19:39;;;;;;;18.40;16.60;;;20.30;99.90;;;;;;4589603;19;20010;-69
2023/09/19 01:21:38;;;;;;;18.73;16.92;;;20.20;99.90;;;;;;4589840;19;20014;-69
2023/09/19 01:23:18;;;;;;;18.38;16.60;;;20.20;99.90;;;;;;4590570;19;20007;-69
2023/09/19 01:25:46;;;;;;;19.83;17.92;;;20.20;99.90;;;;;;4590552;19;20368;-69
2023/09/19 01:27:23;;;;;;;18.92;17.15;;;20.20;99.90;;;;;;4589839;19;20380;-69
2023/09/19 01:29:39;;;;;;;19.25;17.40;;;20.20;99.90;;;;;;4588815;19;20077;-69
2023/09/19 01:31:13;;;;;;;18.80;17.02;;;20.20;99.90;;;;;;4590091;19;20011;-69
2023/09/19 01:32:48;;;;;;;19.30;17.50;;;20.20;99.90;;;;;;4590130;19;20009;-69
2023/09/19 01:34:23;;;;;;;18.92;17.02;;;20.20;99.90;;;;;;4590160;19;19995;-69
2023/09/19 01:35:58;;;;;;;18.33;16.63;;;20.10;99.90;;;;;;4589856;19;19995;-69
2023/09/19 01:37:33;;;;;;;19.50;17.70;;;20.10;99.90;;;;;;4590189;19;20088;-69
2023/09/19 01:39:13;;;;;;;20.33;18.42;;;20.10;99.90;;;;;;4589431;19;20035;-69
2023/09/19 01:40:58;;;;;;;18.67;17.02;;;20.10;99.90;;;;;;4590196;19;20458;-69
2023/09/19 01:43:25;;;;;;;20.38;18.48;;;20.10;99.90;;;;;;4589747;19;20013;-69
2023/09/19 01:45:18;;;;;;;20.52;18.42;;;20.10;99.90;;;;;;4589285;19;20025;-69
2023/09/19 01:46:51;;;;;;;;;;;20.00;99.90;;;;;;4590445;19;20032;-69
2023/09/19 01:49:14;;;;;;;19.00;17.25;;;20.00;99.90;;;;;;4589034;19;20265;-69
2023/09/19 01:51:07;;;;;;;19.55;17.75;;;20.00;99.90;;;;;;4589792;19;20003;-69
2023/09/19 01:52:55;;;;;;;19.67;17.77;;;20.00;99.90;;;;;;4589645;19;20068;-69
2023/09/19 01:54:37;;;;;;;19.33;17.52;;;20.00;99.90;;;;;;4589605;19;20002;-69
2023/09/19 01:56:17;;;;;;;19.85;18.00;;;20.00;99.90;;;;;;4589771;19;20354;-69
2023/09/19 01:58:17;;;;;;;20.60;18.67;;;20.00;99.90;;;;;;4589779;19;20032;-69
2023/09/19 01:59:56;;;;;;;19.70;17.80;;;20.00;99.90;;;;;;4588718;19;20121;-69
2023/09/19 02:01:33;;;;;;;21.55;19.45;;;20.00;99.90;;;;;;4589295;19;20010;-69
2023/09/19 02:03:08;;;;;;;20.80;18.90;;;20.00;99.90;;;;;;4589329;19;20010;-69
2023/09/19 02:04:42;;;;;;;20.98;19.05;;;20.00;99.90;;;;;;4589442;19;20130;-69
2023/09/19 02:06:18;;;;;;;21.02;18.95;;;20.00;99.90;;;;;;4589518;19;20002;-69
2023/09/19 02:07:55;;;;;;;22.23;19.95;;;20.00;99.90;;;;;;4589283;19;20125;-69
2023/09/19 02:09:29;;;;;;;19.88;18.02;;;20.00;99.90;;;;;;4588825;19;20113;-69
2023/09/19 02:11:06;;;;;;;21.15;19.15;;;20.00;99.90;;;;;;4589622;19;20013;-69
2023/09/19 02:12:39;;;;;;;21.15;19.13;;;20.00;99.90;;;;;;4589319;19;20461;-69
2023/09/19 02:14:15;;;;;;;21.08;19.05;;;20.00;99.90;;;;;;4589525;19;20024;-69
2023/09/19 02:15:51;;;;;;;21.63;19.60;;;20.00;99.90;;;;;;4589476;19;20427;-69
2023/09/19 02:17:26;;;;;;;19.67;17.88;;;20.00;99.90;;;;;;4590656;19;20495;-69
2023/09/19 02:19:05;;;;;;;20.40;18.55;;;20.00;99.90;;;;;;4593191;19;20005;-69
2023/09/19 02:20:41;;;;;;;21.92;19.92;;;20.00;99.90;;;;;;4594076;19;20007;-69
2023/09/19 02:22:16;;;;;;;21.98;19.88;;;20.00;99.90;;;;;;4594115;19;20311;-69
2023/09/19 02:23:51;;;;;;;21.85;19.73;;;20.00;99.90;;;;;;4593906;19;20003;-69
2023/09/19 02:25:27;;;;;;;21.33;19.30;;;20.00;99.90;;;;;;4594305;19;20009;-69
2023/09/19 02:27:04;;;;;;;21.70;19.67;;;20.00;99.90;;;;;;4593929;19;20322;-69
2023/09/19 02:28:38;;;;;;;21.17;19.25;;;20.00;99.90;;;;;;4592745;19;19994;-69
2023/09/19 02:30:15;;;;;;;22.02;20.00;;;20.00;99.90;;;;;;4594067;19;20010;-69
2023/09/19 02:31:49;;;;;;;21.95;19.95;;;20.00;99.90;;;;;;4594147;19;20095;-69
2023/09/19 02:33:24;;;;;;;22.45;20.25;;;20.00;99.90;;;;;;4593810;19;20069;-69
2023/09/19 02:34:59;;;;;;;22.33;20.25;;;20.00;99.90;;;;;;4593857;19;19998;-69
2023/09/19 02:36:36;;;;;;;21.50;19.50;;;20.00;99.90;;;;;;4594122;19;20003;-69
2023/09/19 02:38:11;;;;;;;21.90;19.90;;;20.00;99.90;;;;;;4596028;19;19994;-69
2023/09/19 02:39:47;;;;;;;22.40;20.30;;;20.00;99.90;;;;;;4594674;19;20013;-69
2023/09/19 02:41:23;;;;;;;21.95;19.80;;;20.00;99.90;;;;;;4595889;19;20009;-69
2023/09/19 02:42:58;;;;;;;21.05;19.10;;;20.00;99.90;;;;;;4596057;19;20433;-69
2023/09/19 02:44:38;;;;;;;22.20;20.08;;;20.00;99.90;;;;;;4596131;19;20011;-69
2023/09/19 02:46:13;;;;;;;23.85;21.50;;;19.90;99.90;;;;;;4596168;19;20006;-69
2023/09/19 02:47:51;;;;;;;23.58;21.38;;;20.00;99.90;;;;;;4595462;19;20003;-69
2023/09/19 02:49:27;;;;;;;25.75;23.15;;;19.90;99.90;;;;;;4594796;19;20043;-69
2023/09/19 02:51:05;;;;;;;23.83;21.52;;;20.00;99.90;;;;;;4595607;19;20413;-69
2023/09/19 02:52:44;;;;;;;23.05;20.85;;;20.00;99.90;;;;;;4594700;19;20293;-69
2023/09/19 02:54:20;;;;;;;23.02;20.83;;;20.00;99.90;;;;;;4594381;19;20010;-69
2023/09/19 02:55:54;;;;;;;22.20;20.02;;;19.90;99.90;;;;;;4595597;19;19998;-69
2023/09/19 02:57:29;;;;;;;22.73;20.63;;;19.90;99.90;;;;;;4595604;19;20066;-69
2023/09/19 02:59:04;;;;;;;23.08;20.85;;;19.90;99.90;;;;;;4595282;19;20010;-69
2023/09/19 03:00:38;;;;;;;23.00;20.83;;;19.90;99.90;;;;;;4595789;19;20436;-69
2023/09/19 03:02:15;;;;;;;22.45;20.35;;;19.90;99.90;;;;;;4595481;19;20325;-69
2023/09/19 03:03:51;;;;;;;22.05;20.02;;;19.90;99.90;;;;;;4594472;19;20013;-69
2023/09/19 03:05:26;;;;;;;23.83;21.52;;;19.90;99.90;;;;;;4595310;19;20040;-69
2023/09/19 03:07:01;;;;;;;23.05;20.85;;;19.90;99.90;;;;;;4595632;19;19999;-69
2023/09/19 03:08:39;;;;;;;22.08;19.98;;;19.90;99.90;;;;;;4594477;19;20010;-69
2023/09/19 03:10:15;;;;;;;22.30;20.23;;;19.90;99.90;;;;;;4595409;19;19994;-69
2023/09/19 03:11:50;;;;;;;23.33;21.02;;;19.90;99.90;;;;;;4595323;19;20006;-69
2023/09/19 03:13:25;;;;;;;23.50;21.30;;;19.90;99.90;;;;;;4595541;19;20452;-69
2023/09/19 03:15:00;;;;;;;25.02;22.63;;;19.90;99.90;;;;;;4595159;19;20002;-69
2023/09/19 03:16:37;;;;;;;24.42;22.15;;;19.90;99.90;;;;;;4595222;19;20048;-69
2023/09/19 03:18:16;;;;;;;26.33;23.80;;;19.90;99.90;;;;;;4593854;19;20063;-69
2023/09/19 03:19:50;;;;;;;25.92;23.30;;;19.90;99.90;;;;;;4593164;19;20010;-69
2023/09/19 03:21:24;;;;;;;28.33;25.45;;;19.90;99.90;;;;;;4595366;19;20358;-69
2023/09/19 03:23:00;;;;;;;26.70;24.00;;;19.90;99.90;;;;;;4595496;19;20098;-69
2023/09/19 03:24:35;;;;;;;26.35;23.85;;;19.90;99.90;;;;;;4593527;19;20362;-69
2023/09/19 03:26:09;;;;;;;25.13;22.63;;;19.90;99.90;;;;;;4594793;19;20058;-69
2023/09/19 03:27:44;;;;;;;23.08;20.63;;;20.00;99.90;;;;;;4594746;19;20481;-69
2023/09/19 03:29:20;;;;;;;23.83;21.38;;;20.00;99.90;;;;;;4593686;19;20002;-69
2023/09/19 03:31:03;;;;;;;22.48;20.23;;;20.20;99.90;;;;;;4595113;19;20017;-69
2023/09/19 03:32:46;;;;;;;21.85;18.08;;;20.40;99.90;;;;;;4593556;19;20007;-69
2023/09/19 03:34:19;;;;;;;20.90;18.63;;;20.60;99.90;;;;;;4593513;19;20003;-69
2023/09/19 03:35:58;;;;;;;17.35;15.55;;;20.70;99.90;;;;;;4594393;19;20137;-69
2023/09/19 03:37:34;;;;;;;15.77;14.18;;;20.80;99.90;;;;;;4594817;19;20007;-70
2023/09/19 03:39:10;;;;;;;17.35;14.88;;;20.90;99.90;;;;;;4594456;19;20062;-69
2023/09/19 03:40:45;;;;;;;16.25;14.55;;;21.00;99.90;;;;;;4594942;19;20010;-69
2023/09/19 03:42:25;;;;;;;18.75;14.38;;;21.10;99.90;;;;;;4593748;19;20422;-70
2023/09/19 03:44:01;;;;;;;15.52;13.18;;;21.20;99.90;;;;;;4593919;19;20006;-70
2023/09/19 03:45:35;;;;;;;17.30;14.65;;;21.30;99.90;;;;;;4594960;19;20003;-70
2023/09/19 03:47:11;;;;;;;21.88;13.90;;;21.30;99.90;;;;;;4595070;19;20002;-70
2023/09/19 03:48:46;;;;;;;17.08;12.95;;;21.40;99.90;;;;;;4593682;19;20001;-70
2023/09/19 03:50:21;;;;;;;15.38;13.32;;;21.40;99.90;;;;;;4594921;19;20025;-70
2023/09/19 03:51:56;;;;;;;11.85;9.93;;;21.50;99.90;;;;;;4595272;19;20007;-70
2023/09/19 03:53:31;;;;;;;12.27;9.82;;;21.60;99.90;;;;;;4594904;19;19998;-70
2023/09/19 03:55:05;;;;;;;13.85;10.18;;;21.70;99.90;;;;;;4595155;19;20334;-70
2023/09/19 03:56:42;;;;;;;12.15;8.93;;;21.70;99.90;;;;;;4595193;19;20007;-70
2023/09/19 03:58:16;;;;;;;13.25;9.13;;;21.80;99.90;;;;;;4595156;19;20009;-70
2023/09/19 03:59:53;;;;;;;11.20;8.35;;;22.00;99.90;;;;;;4593785;19;20436;-69
2023/09/19 04:01:33;;;;;;;13.33;9.87;;;22.10;99.90;;;;;;4595186;19;20020;-70
2023/09/19 04:03:08;;;;;;;11.82;8.52;;;22.20;99.90;;;;;;4594991;19;20365;-70
2023/09/19 04:04:42;;;;;;;10.20;7.80;;;22.30;99.90;;;;;;4594629;19;20084;-70
2023/09/19 04:06:18;;;;;;;10.05;7.85;;;22.40;99.90;;;;;;4594686;19;20007;-69
2023/09/19 04:07:53;;;;;;;11.35;8.02;;;22.50;99.90;;;;;;4593286;19;19994;-70
2023/09/19 04:09:27;;;;;;;11.07;7.85;;;22.50;99.90;;;;;;4593702;19;20007;-69
2023/09/19 04:11:03;;;;;;;10.20;7.85;;;22.50;99.90;;;;;;4594459;19;20316;-69
2023/09/19 04:12:37;;;;;;;9.68;7.45;;;22.50;99.90;;;;;;4594433;19;20006;-69
2023/09/19 04:14:12;;;;;;;9.32;7.00;;;22.60;99.90;;;;;;4594462;19;20006;-70
2023/09/19 04:15:47;;;;;;;8.32;6.57;;;22.70;99.90;;;;;;4594552;19;19995;-69
2023/09/19 04:17:23;;;;;;;8.70;7.22;;;22.80;99.90;;;;;;4594391;19;20002;-72
2023/09/19 04:18:57;;;;;;;9.57;7.07;;;22.90;99.90;;;;;;4592344;19;20017;-70
2023/09/19 04:20:33;;;;;;;7.07;6.38;;;22.90;99.90;;;;;;4593991;19;20061;-70
2023/09/19 04:22:09;;;;;;;9.60;6.43;;;22.80;99.90;;;;;;4594178;19;20005;-70
2023/09/19 04:23:43;;;;;;;9.65;6.78;;;22.80;99.90;;;;;;4594413;19;20015;-70
2023/09/19 04:25:19;;;;;;;8.60;6.15;;;22.70;99.90;;;;;;4594296;19;20322;-70
2023/09/19 04:26:53;;;;;;;10.05;6.15;;;22.70;99.90;;;;;;4594424;19;19999;-70
2023/09/19 04:28:32;;;;;;;8.68;6.30;;;22.70;99.90;;;;;;4593283;19;20320;-70
2023/09/19 04:30:11;;;;;;;9.57;6.10;;;22.70;99.90;;;;;;4591746;19;20025;-70
2023/09/19 04:31:46;;;;;;;9.57;5.60;;;22.70;99.90;;;;;;4594115;19;20007;-70
2023/09/19 04:33:20;;;;;;;7.63;5.95;;;22.80;99.90;;;;;;4592677;19;20013;-70
2023/09/19 04:34:59;;;;;;;8.23;6.53;;;22.80;99.90;;;;;;4592688;19;20006;-70
2023/09/19 04:36:36;;;;;;;9.23;6.15;;;22.90;99.90;;;;;;4594030;19;20006;-70
2023/09/19 04:38:11;;;;;;;8.77;5.95;;;22.90;99.90;;;;;;4593924;19;20006;-70
2023/09/19 04:39:48;;;;;;;8.65;5.82;;;22.90;99.90;;;;;;4591484;19;20017;-70
2023/09/19 04:41:22;;;;;;;8.70;6.43;;;23.00;99.90;;;;;;4593572;19;19999;-70
2023/09/19 04:42:57;;;;;;;7.55;6.07;;;23.00;99.90;;;;;;4593993;19;20002;-70
2023/09/19 04:44:33;;;;;;;6.68;5.30;;;23.10;99.90;;;;;;4594098;19;20007;-70
2023/09/19 04:46:07;;;;;;;9.80;6.47;;;23.10;99.90;;;;;;4593738;19;20009;-70
2023/09/19 04:47:43;;;;;;;7.03;5.50;;;23.10;99.90;;;;;;4593912;19;20009;-70
2023/09/19 04:49:19;;;;;;;8.60;5.72;;;23.10;99.90;;;;;;4593082;19;20295;-70
2023/09/19 04:50:53;;;;;;;8.27;5.40;;;23.20;99.90;;;;;;4593685;19;20036;-70
2023/09/19 04:52:28;;;;;;;9.55;5.88;;;23.10;99.90;;;;;;4593580;19;20041;-70
2023/09/19 04:54:04;;;;;;;11.13;6.10;;;23.10;99.90;;;;;;4592570;19;20441;-70
2023/09/19 04:55:39;;;;;;;8.07;5.97;;;23.10;99.90;;;;;;4593055;19;20010;-70
2023/09/19 04:57:13;;;;;;;8.48;6.30;;;23.10;99.90;;;;;;4593755;19;20019;-70
2023/09/19 04:58:48;;;;;;;8.80;7.20;;;23.10;99.90;;;;;;4593192;19;20018;-69
2023/09/19 05:00:30;;;;;;;9.90;6.50;;;23.10;99.90;;;;;;4593437;19;20003;-70
2023/09/19 05:02:04;;;;;;;;;;;23.10;99.90;;;;;;4594363;19;20425;-70
2023/09/19 05:03:39;;;;;;;11.50;6.80;;;23.10;99.90;;;;;;4593376;19;19915;-70
2023/09/19 05:05:16;;;;;;;9.35;5.95;;;23.10;99.90;;;;;;4592274;19;20429;-70
2023/09/19 05:06:51;;;;;;;9.07;5.95;;;23.10;99.90;;;;;;4593351;19;20007;-70
2023/09/19 05:08:26;;;;;;;10.95;6.53;;;23.10;99.90;;;;;;4593002;19;20306;-70
2023/09/19 05:10:01;;;;;;;7.88;5.65;;;23.10;99.90;;;;;;4592478;19;19999;-70
2023/09/19 05:11:36;;;;;;;8.93;6.45;;;23.10;99.90;;;;;;4591938;19;20002;-71
2023/09/19 05:13:12;;;;;;;8.55;5.78;;;23.10;99.90;;;;;;4593137;19;20014;-71
2023/09/19 05:14:46;;;;;;;6.35;5.15;;;23.10;99.90;;;;;;4593185;19;20015;-71
2023/09/19 05:16:21;;;;;;;5.47;4.90;;;23.10;99.90;;;;;;4591986;19;20010;-71
2023/09/19 05:17:56;;;;;;;6.88;5.30;;;23.10;99.90;;;;;;4592098;19;20458;-71
2023/09/19 05:19:31;;;;;;;8.10;5.90;;;23.10;99.90;;;;;;4591995;19;20014;-71
2023/09/19 05:21:05;;;;;;;8.82;5.40;;;23.10;99.90;;;;;;4593291;19;20005;-71
2023/09/19 05:22:42;;;;;;;11.30;5.57;;;23.10;99.90;;;;;;4593032;19;20007;-70
2023/09/19 05:24:17;;;;;;;7.57;5.43;;;23.10;99.90;;;;;;4593042;19;20026;-70
2023/09/19 05:25:58;;;;;;;7.78;6.07;;;23.10;99.90;;;;;;4591767;19;20017;-71
2023/09/19 05:27:33;;;;;;;10.93;5.75;;;23.10;99.90;;;;;;4592982;19;20003;-71
2023/09/19 05:29:09;;;;;;;9.10;5.57;;;23.10;99.90;;;;;;4591602;19;20006;-71
2023/09/19 05:30:43;;;;;;;7.80;5.60;;;23.10;99.90;;;;;;4593157;19;20018;-70
2023/09/19 05:32:19;;;;;;;6.68;5.55;;;23.10;99.90;;;;;;4593138;19;20310;-70
2023/09/19 05:33:55;;;;;;;9.60;6.22;;;23.00;99.90;;;;;;4592978;19;20312;-72
2023/09/19 05:35:29;;;;;;;7.57;6.15;;;23.00;99.90;;;;;;4593094;19;20513;-70
2023/09/19 05:37:08;;;;;;;7.00;5.45;;;23.00;99.90;;;;;;4592780;19;20031;-70
2023/09/19 05:38:45;;;;;;;9.73;5.32;;;23.00;99.90;;;;;;4591415;19;20006;-71
2023/09/19 05:40:19;;;;;;;8.73;5.78;;;23.00;99.90;;;;;;4591591;19;20366;-70
2023/09/19 05:41:56;;;;;;;8.05;5.18;;;23.00;99.90;;;;;;4592330;19;20074;-70
2023/09/19 05:43:31;;;;;;;7.35;4.95;;;23.00;99.90;;;;;;4593244;19;20465;-70
2023/09/19 05:45:06;;;;;;;7.90;5.20;;;23.00;99.90;;;;;;4592686;19;20003;-70
2023/09/19 05:46:42;;;;;;;9.13;5.82;;;23.00;99.90;;;;;;4592547;19;20028;-70
2023/09/19 05:48:17;;;;;;;7.25;4.80;;;22.90;99.90;;;;;;4592281;19;20290;-70
2023/09/19 05:49:52;;;;;;;8.77;5.93;;;22.90;99.90;;;;;;4591498;19;20489;-70
2023/09/19 05:51:28;;;;;;;7.68;5.75;;;22.90;99.90;;;;;;4592090;19;20433;-70
2023/09/19 05:53:04;;;;;;;6.72;5.35;;;23.00;99.90;;;;;;4592409;19;20012;-70
2023/09/19 05:54:38;;;;;;;6.82;5.60;;;23.00;99.90;;;;;;4592342;19;20010;-70
2023/09/19 05:56:15;;;;;;;7.70;5.88;;;23.00;99.90;;;;;;4591084;19;20006;-70
2023/09/19 05:57:53;;;;;;;9.68;6.00;;;23.00;99.90;;;;;;4591965;19;19998;-70
2023/09/19 05:59:27;;;;;;;7.65;5.65;;;23.10;99.90;;;;;;4590217;19;20066;-70
2023/09/19 06:01:03;;;;;;;7.60;5.68;;;23.10;99.90;;;;;;4591939;19;20006;-70
2023/09/19 06:02:38;;;;;;;8.23;5.68;;;23.10;99.90;;;;;;4592078;19;20002;-70
2023/09/19 06:04:13;;;;;;;6.70;5.85;;;23.10;99.90;;;;;;4590762;19;20009;-70
2023/09/19 06:05:52;;;;;;;6.65;5.03;;;23.10;99.90;;;;;;4592099;19;20283;-70
2023/09/19 06:07:36;;;;;;;7.70;5.95;;;23.10;99.90;;;;;;4590746;19;20011;-70
2023/09/19 06:09:11;;;;;;;8.48;5.88;;;23.10;99.90;;;;;;4589684;19;20183;-70
2023/09/19 06:10:48;;;;;;;6.38;5.28;;;23.10;99.90;;;;;;4591901;19;20011;-70
2023/09/19 06:12:23;;;;;;;6.60;5.20;;;23.10;99.90;;;;;;4592417;19;20659;-70
2023/09/19 06:13:57;;;;;;;7.85;5.30;;;23.10;99.90;;;;;;4592161;19;20034;-70
2023/09/19 06:15:33;;;;;;;8.43;5.63;;;23.10;99.90;;;;;;4592363;19;20010;-70
2023/09/19 06:17:07;;;;;;;5.95;5.05;;;23.10;99.90;;;;;;4591982;19;20066;-70
2023/09/19 06:18:42;;;;;;;7.45;5.20;;;23.00;99.90;;;;;;4590666;19;20357;-70
2023/09/19 06:20:17;;;;;;;7.95;5.10;;;23.00;99.90;;;;;;4590330;19;20018;-71
2023/09/19 06:21:53;;;;;;;7.20;4.88;;;23.00;99.90;;;;;;4592182;19;20453;-70
2023/09/19 06:23:29;;;;;;;6.50;4.57;;;23.00;99.90;;;;;;4590894;19;20321;-71
2023/09/19 06:25:05;;;;;;;6.80;4.75;;;23.00;99.90;;;;;;4591860;19;20006;-70
2023/09/19 06:26:39;;;;;;;6.80;5.53;;;23.00;99.90;;;;;;4590499;19;20003;-80
2023/09/19 06:28:16;;;;;;;7.55;4.20;;;23.00;99.90;;;;;;4590933;19;20006;-70
2023/09/19 06:29:52;;;;;;;5.45;3.95;;;23.00;99.90;;;;;;4590983;19;20038;-69
2023/09/19 06:31:26;;;;;;;6.55;4.07;;;23.00;99.90;;;;;;4591751;19;20005;-71
2023/09/19 06:33:01;;;;;;;6.50;4.60;;;23.00;99.90;;;;;;4591309;19;20003;-70
2023/09/19 06:34:38;;;;;;;5.88;4.30;;;23.00;99.90;;;;;;4591579;19;20014;-70
2023/09/19 06:36:13;;;;;;;6.95;4.43;;;23.00;99.90;;;;;;4591357;19;19998;-70
2023/09/19 06:37:47;;;;;;;6.72;4.53;;;23.00;99.90;;;;;;4591225;19;20011;-69
2023/09/19 06:39:24;;;;;;;4.72;4.03;;;23.00;99.90;;;;;;4590434;19;20011;-69
2023/09/19 06:41:01;;;;;;;7.57;4.68;;;23.00;99.90;;;;;;4591326;19;20300;-70
2023/09/19 06:42:37;;;;;;;7.05;4.82;;;22.90;99.90;;;;;;4591346;19;20014;-70
2023/09/19 06:44:12;;;;;;;6.90;5.25;;;23.00;99.90;;;;;;4590322;19;20007;-70
2023/09/19 06:45:47;;;;;;;7.50;5.95;;;22.90;99.90;;;;;;4590711;19;20010;-70
2023/09/19 06:47:20;;;;;;;6.75;6.00;;;22.90;99.90;;;;;;4591317;19;20003;-70
2023/09/19 06:48:56;;;;;;;7.45;6.18;;;22.90;99.90;;;;;;4590074;19;20014;-69
2023/09/19 06:50:31;;;;;;;7.30;5.90;;;22.90;99.90;;;;;;4591251;19;20010;-69
2023/09/19 06:52:05;;;;;;;7.55;5.85;;;22.90;99.90;;;;;;4591402;19;20003;-70
2023/09/19 06:53:41;;;;;;;6.90;5.60;;;22.90;99.90;;;;;;4591185;19;20062;-70
2023/09/19 06:55:16;;;;;;;7.25;6.32;;;22.90;99.90;;;;;;4591037;19;20010;-70
2023/09/19 06:56:50;;;;;;;6.60;4.97;;;22.90;99.90;;;;;;4590870;19;20002;-70
2023/09/19 06:58:26;;;;;;;6.55;5.35;;;22.90;99.90;;;;;;4591578;19;20006;-70
2023/09/19 07:00:01;;;;;;;6.00;5.28;;;22.90;99.90;;;;;;4590231;19;20311;-70
2023/09/19 07:01:37;;;;;;;6.28;4.40;;;22.90;99.90;;;;;;4591188;19;20006;-70
2023/09/19 07:03:16;;;;;;;6.90;5.10;;;22.90;99.90;;;;;;4592058;19;20011;-70
2023/09/19 07:04:50;;;;;;;6.25;4.82;;;23.00;99.90;;;;;;4596119;19;20007;-70
2023/09/19 07:06:25;;;;;;;5.85;4.78;;;23.00;99.90;;;;;;4595827;19;19998;-70
2023/09/19 07:08:01;;;;;;;5.85;4.82;;;23.10;99.90;;;;;;4595829;19;20013;-70
2023/09/19 07:09:35;;;;;;;7.47;5.10;;;23.10;99.90;;;;;;4593254;19;20338;-70
2023/09/19 07:11:10;;;;;;;6.97;5.35;;;23.20;99.90;;;;;;4594407;19;20002;-70
2023/09/19 07:12:46;;;;;;;6.15;4.72;;;23.30;99.90;;;;;;4595419;19;20022;-70
2023/09/19 07:14:21;;;;;;;8.13;5.00;;;23.40;99.90;;;;;;4595927;19;20002;-70
2023/09/19 07:15:56;;;;;;;6.57;4.65;;;23.40;99.90;;;;;;4595843;19;20028;-70
2023/09/19 07:17:33;;;;;;;7.68;4.88;;;23.50;99.90;;;;;;4595618;19;20023;-70
2023/09/19 07:19:07;;;;;;;5.95;4.90;;;23.60;99.90;;;;;;4593162;19;20372;-71
2023/09/19 07:20:48;;;;;;;8.15;5.20;;;23.60;99.90;;;;;;4595218;19;20002;-71
2023/09/19 07:22:25;;;;;;;6.90;5.28;;;23.70;99.90;;;;;;4594454;19;20024;-71
2023/09/19 07:24:05;;;;;;;7.30;5.05;;;23.70;99.90;;;;;;4595109;19;20003;-70
2023/09/19 07:25:40;;;;;;;6.68;5.13;;;23.70;99.90;;;;;;4594154;19;20074;-70
2023/09/19 07:27:16;;;;;;;5.68;4.82;;;23.60;99.90;;;;;;4595469;19;20436;-71
2023/09/19 07:28:50;;;;;;;7.75;4.85;;;23.60;99.90;;;;;;4594181;19;19998;-71
2023/09/19 07:30:25;;;;;;;5.53;4.78;;;23.60;99.90;;;;;;4594995;19;20034;-71
2023/09/19 07:32:00;;;;;;;5.40;4.53;;;23.70;99.90;;;;;;4593544;19;20010;-71
2023/09/19 07:33:35;;;;;;;6.85;5.80;;;23.70;99.90;;;;;;4594455;19;20426;-71
2023/09/19 07:35:09;;;;;;;5.65;4.70;;;23.70;99.90;;;;;;4594744;19;19999;-70
2023/09/19 07:36:47;;;;;;;6.75;5.22;;;23.70;99.90;;;;;;4595143;19;20006;-72
2023/09/19 07:38:21;;;;;;;6.07;5.00;;;23.70;99.90;;;;;;4593686;19;20019;-69
2023/09/19 07:39:55;;;;;;;5.80;4.75;;;23.70;99.90;;;;;;4592899;19;20431;-69
2023/09/19 07:41:32;;;;;;;7.28;5.22;;;23.70;99.90;;;;;;4594724;19;20086;-69
2023/09/19 07:43:06;;;;;;;7.18;6.47;;;23.70;99.90;;;;;;4595061;19;20377;-70
2023/09/19 07:44:41;;;;;;;6.65;4.95;;;23.70;99.90;;;;;;4593241;19;20003;-72
2023/09/19 07:46:16;;;;;;;7.00;5.47;;;23.60;99.90;;;;;;4594249;19;20014;-69
2023/09/19 07:47:51;;;;;;;7.25;5.35;;;23.70;99.90;;;;;;4593213;19;20014;-70
2023/09/19 07:49:25;;;;;;;5.88;5.28;;;23.60;99.90;;;;;;4591912;19;20126;-69
2023/09/19 07:51:08;;;;;;;7.25;5.85;;;23.60;99.90;;;;;;4594675;19;20099;-70
2023/09/19 07:52:43;;;;;;;7.25;5.43;;;23.70;99.90;;;;;;4594244;19;20017;-71
2023/09/19 07:54:18;;;;;;;7.18;5.10;;;23.70;99.90;;;;;;4594410;19;20073;-71
2023/09/19 07:55:55;;;;;;;6.82;5.03;;;23.70;99.90;;;;;;4592863;19;20011;-71
2023/09/19 07:57:30;;;;;;;7.30;5.20;;;23.70;99.90;;;;;;4592951;19;20018;-70
2023/09/19 07:59:04;;;;;;;8.25;5.45;;;23.60;99.90;;;;;;4593224;19;20014;-70
2023/09/19 08:00:40;;;;;;;7.53;5.53;;;23.60;99.90;;;;;;4594383;19;20298;-71
2023/09/19 08:02:18;;;;;;;6.88;4.80;;;23.60;99.90;;;;;;4594251;19;20026;-71
2023/09/19 08:03:52;;;;;;;6.28;5.28;;;23.60;99.90;;;;;;4594306;19;20278;-71
2023/09/19 08:05:28;;;;;;;5.03;4.35;;;23.50;99.90;;;;;;4592652;19;20013;-71
2023/09/19 08:07:04;;;;;;;8.88;5.55;;;23.50;99.90;;;;;;4593873;19;20017;-71
2023/09/19 08:08:38;;;;;;;4.80;3.97;;;23.60;99.90;;;;;;4593914;19;20002;-71
2023/09/19 08:10:15;;;;;;;6.20;4.32;;;23.60;99.90;;;;;;4593024;19;20422;-71
2023/09/19 08:11:50;;;;;;;5.28;4.18;;;23.50;99.90;;;;;;4594061;19;20017;-71
2023/09/19 08:13:24;;;;;;;5.55;3.95;;;23.50;99.90;;;;;;4593999;19;20006;-71
2023/09/19 08:15:00;;;;;;;4.07;3.67;;;23.40;99.90;;;;;;4590364;19;20006;-71
2023/09/19 08:16:34;;;;;;;5.38;3.47;;;23.40;99.90;;;;;;4594144;19;20002;-71
2023/09/19 08:18:09;;;;;;;5.25;4.00;;;23.40;99.90;;;;;;4594076;19;19999;-71
2023/09/19 08:19:46;;;;;;;7.70;3.10;;;23.30;99.90;;;;;;4591457;19;20082;-71
2023/09/19 08:21:20;;;;;;;4.43;3.65;;;23.30;99.90;;;;;;4592423;19;20006;-71
2023/09/19 08:22:55;;;;;;;4.80;2.92;;;23.30;99.90;;;;;;4594052;19;20003;-71
2023/09/19 08:24:32;;;;;;;5.38;3.15;;;23.30;99.90;;;;;;4593271;19;20015;-71
2023/09/19 08:26:10;;;;;;;3.92;3.38;;;23.30;99.90;;;;;;4593178;19;20030;-71
2023/09/19 08:27:48;;;;;;;5.38;3.05;;;23.30;99.90;;;;;;4592621;19;20103;-71
2023/09/19 08:29:29;;;;;;;4.82;3.45;;;23.30;99.90;;;;;;4590806;19;20010;-71
2023/09/19 08:31:10;;;;;;;4.60;3.00;;;23.20;99.90;;;;;;4594290;19;20014;-71
2023/09/19 08:32:45;;;;;;;5.40;3.22;;;23.20;99.90;;;;;;4593134;19;20046;-71
2023/09/19 08:34:22;;;;;;;5.22;2.95;;;23.20;99.90;;;;;;4594171;19;20070;-71
2023/09/19 08:35:57;;;;;;;5.28;3.00;;;23.20;99.90;;;;;;4593944;19;20022;-71
2023/09/19 08:37:32;;;;;;;4.72;3.53;;;23.20;99.90;;;;;;4593955;19;20006;-71
2023/09/19 08:39:08;;;;;;;5.68;3.03;;;23.10;99.90;;;;;;4593108;19;20018;-71